Time;durP1;ratioP1;P1;durP2;ratioP2;P2;SDS_P1;SDS_P2;PMS_P1;PMS_P2;Temp;Humidity;BMP_temperature;BMP_pressure;BME280_temperature;BME280_humidity;BME280_pressure;Samples;Min_cycle;Max_cycle;Signal;HPM_P1;HPM_P2
2023/12/23 00:01:38;;;;;;;17.35;5.50;;;3.30;88.90;;;;;;5077576;28;20020;-48
2023/12/23 00:04:07;;;;;;;10.80;2.50;;;3.40;88.90;;;;;;5077778;28;20467;-48
2023/12/23 00:06:35;;;;;;;19.48;2.55;;;3.40;88.90;;;;;;5075344;28;20024;-47
2023/12/23 00:09:02;;;;;;;13.93;2.92;;;3.40;89.00;;;;;;5084369;28;20035;-47
2023/12/23 00:11:32;;;;;;;15.48;2.83;;;3.50;89.10;;;;;;5095015;28;20497;-47
2023/12/23 00:13:59;;;;;;;15.43;4.47;;;3.60;88.90;;;;;;5094691;28;20421;-47
2023/12/23 00:16:27;;;;;;;14.25;2.60;;;3.70;87.80;;;;;;5094229;28;20039;-47
2023/12/23 00:18:54;;;;;;;7.97;2.00;;;3.80;87.10;;;;;;5095297;28;20397;-47
2023/12/23 00:21:21;;;;;;;9.57;4.13;;;3.80;85.60;;;;;;5089163;28;20029;-47
2023/12/23 00:23:50;;;;;;;16.65;2.45;;;3.90;84.70;;;;;;5083227;28;20039;-47
2023/12/23 00:26:17;;;;;;;9.93;1.98;;;3.90;83.10;;;;;;5095062;28;20476;-49
2023/12/23 00:28:42;;;;;;;10.32;2.20;;;4.00;82.30;;;;;;5094244;28;20158;-47
2023/12/23 00:31:12;;;;;;;21.08;4.40;;;4.00;82.30;;;;;;5074353;28;20107;-47
2023/12/23 00:33:44;;;;;;;14.15;5.03;;;4.00;82.30;;;;;;5074781;28;20104;-47
2023/12/23 00:36:11;;;;;;;11.02;2.42;;;3.90;82.40;;;;;;5074524;28;20582;-48
2023/12/23 00:38:37;;;;;;;12.65;2.80;;;4.00;82.20;;;;;;5080651;28;20110;-47
2023/12/23 00:41:06;;;;;;;9.32;2.03;;;4.10;82.40;;;;;;5093906;28;20495;-47
2023/12/23 00:43:36;;;;;;;9.53;2.30;;;4.10;82.00;;;;;;5074407;28;20385;-48
2023/12/23 00:46:02;;;;;;;11.15;2.20;;;4.20;81.90;;;;;;5074707;28;20279;-47
2023/12/23 00:48:29;;;;;;;10.75;2.67;;;4.30;81.80;;;;;;5080769;28;20103;-47
2023/12/23 00:50:55;;;;;;;12.77;3.35;;;4.30;81.10;;;;;;5076533;28;20138;-48
2023/12/23 00:53:28;;;;;;;11.98;2.40;;;4.40;80.10;;;;;;5093043;28;20098;-46
2023/12/23 00:55:55;;;;;;;14.18;2.58;;;4.40;79.00;;;;;;5074037;28;20017;-47
2023/12/23 00:58:21;;;;;;;12.68;2.05;;;4.50;78.80;;;;;;5089035;28;20028;-46
2023/12/23 01:00:48;;;;;;;20.42;2.58;;;4.60;79.00;;;;;;5075622;28;20040;-47
2023/12/23 01:03:19;;;;;;;14.45;3.03;;;4.50;79.00;;;;;;5093907;28;20024;-49
2023/12/23 01:05:45;;;;;;;12.57;2.92;;;4.60;78.60;;;;;;5071584;28;20374;-46
2023/12/23 01:08:12;;;;;;;7.97;1.70;;;4.60;78.10;;;;;;5088171;28;20354;-47
2023/12/23 01:10:38;;;;;;;12.98;1.92;;;4.70;78.20;;;;;;5093293;28;20063;-48
2023/12/23 01:13:05;;;;;;;15.68;2.75;;;4.70;79.30;;;;;;5075487;28;20031;-47
2023/12/23 01:15:32;;;;;;;14.25;3.33;;;4.80;80.40;;;;;;5085780;28;20021;-46
2023/12/23 01:17:59;;;;;;;12.90;2.85;;;4.80;80.60;;;;;;5078928;28;20139;-47
2023/12/23 01:20:28;;;;;;;10.27;2.05;;;4.80;80.60;;;;;;5082435;28;20028;-47
2023/12/23 01:22:55;;;;;;;13.63;2.10;;;4.70;80.40;;;;;;5085392;28;20103;-47
2023/12/23 01:25:22;;;;;;;15.23;2.65;;;4.70;80.70;;;;;;5082640;28;20115;-47
2023/12/23 01:27:49;;;;;;;12.82;2.22;;;4.70;80.50;;;;;;5083320;28;20038;-47
2023/12/23 01:30:22;;;;;;;10.15;3.03;;;4.70;80.10;;;;;;5081223;28;20103;-47
2023/12/23 01:32:50;;;;;;;16.17;3.15;;;4.70;80.50;;;;;;5073033;28;20445;-47
2023/12/23 01:35:17;;;;;;;12.75;3.45;;;4.80;80.50;;;;;;5076153;28;20116;-48
2023/12/23 01:37:44;;;;;;;11.55;1.83;;;4.80;80.20;;;;;;5092589;28;20028;-47
2023/12/23 01:40:11;;;;;;;10.30;1.80;;;4.80;79.80;;;;;;5083910;28;20024;-47
2023/12/23 01:42:40;;;;;;;12.07;1.63;;;4.90;79.00;;;;;;5081533;28;20016;-47
2023/12/23 01:45:08;;;;;;;8.67;2.67;;;5.00;78.70;;;;;;5083317;28;20016;-47
2023/12/23 01:47:40;;;;;;;8.57;1.85;;;5.00;78.40;;;;;;5068036;28;20560;-47
2023/12/23 01:50:09;;;;;;;8.68;1.20;;;5.00;78.70;;;;;;5083055;28;20131;-47
2023/12/23 01:52:38;;;;;;;10.23;2.20;;;5.00;78.70;;;;;;5081289;28;20420;-47
2023/12/23 01:55:05;;;;;;;8.63;1.83;;;5.00;79.00;;;;;;5080905;28;20086;-46
2023/12/23 01:57:32;;;;;;;9.23;1.80;;;5.00;79.10;;;;;;5091979;28;20114;-48
2023/12/23 01:59:59;;;;;;;7.53;1.70;;;5.00;79.30;;;;;;5092942;28;20016;-48
2023/12/23 02:02:28;;;;;;;11.65;2.00;;;5.10;80.00;;;;;;5086778;28;20028;-47
2023/12/23 02:04:56;;;;;;;10.13;2.30;;;5.00;80.60;;;;;;5081929;28;20112;-50
2023/12/23 02:07:23;;;;;;;9.25;1.80;;;5.00;81.20;;;;;;5084803;28;20056;-47
2023/12/23 02:09:48;;;;;;;13.88;2.30;;;5.00;82.00;;;;;;5081556;28;20059;-48
2023/12/23 02:12:53;;;;;;;10.27;3.17;;;5.00;82.70;;;;;;5083851;28;20040;-47
2023/12/23 02:15:21;;;;;;;7.75;2.28;;;4.90;83.90;;;;;;5086373;28;20048;-47
2023/12/23 02:18:00;;;;;;;9.40;2.30;;;4.90;84.60;;;;;;5092586;28;20047;-47
2023/12/23 02:20:26;;;;;;;10.13;2.88;;;4.90;84.90;;;;;;5092610;28;20551;-46
2023/12/23 02:22:56;;;;;;;13.38;2.97;;;4.90;85.10;;;;;;5084371;28;20572;-49
2023/12/23 02:25:23;;;;;;;12.85;2.80;;;4.90;85.20;;;;;;5084121;28;20116;-47
2023/12/23 02:27:54;;;;;;;15.93;2.55;;;4.90;85.20;;;;;;5081086;28;20499;-47
2023/12/23 02:30:23;;;;;;;14.85;3.85;;;4.90;85.00;;;;;;5082525;28;20036;-47
2023/12/23 02:32:50;;;;;;;16.48;2.05;;;4.90;84.90;;;;;;5089867;28;20443;-47
2023/12/23 02:35:17;;;;;;;9.75;2.55;;;4.90;84.60;;;;;;5075048;28;20071;-47
2023/12/23 02:37:45;;;;;;;14.20;1.98;;;5.00;84.40;;;;;;5092350;28;20032;-47
2023/12/23 02:40:12;;;;;;;14.55;2.42;;;5.00;84.30;;;;;;5068571;28;20351;-47
2023/12/23 02:42:38;;;;;;;23.85;4.45;;;5.00;83.90;;;;;;5084169;28;20021;-50
2023/12/23 02:45:05;;;;;;;12.07;1.98;;;5.00;83.70;;;;;;5091937;28;20028;-48
2023/12/23 02:47:32;;;;;;;8.75;2.40;;;5.00;83.40;;;;;;5066555;28;20116;-47
2023/12/23 02:50:01;;;;;;;15.75;2.30;;;5.10;83.30;;;;;;5081657;28;20023;-47
2023/12/23 02:52:28;;;;;;;13.45;1.75;;;5.00;83.60;;;;;;5076683;28;20040;-48
2023/12/23 02:54:55;;;;;;;15.90;2.15;;;5.00;83.90;;;;;;5076328;28;20101;-47
2023/12/23 02:57:21;;;;;;;8.82;3.28;;;5.00;84.00;;;;;;5076163;28;20020;-49
2023/12/23 02:59:47;;;;;;;9.30;1.95;;;5.00;84.10;;;;;;5076798;28;20025;-47
2023/12/23 03:02:14;;;;;;;4.88;1.25;;;4.90;84.40;;;;;;5076669;28;20055;-47
2023/12/23 03:04:40;;;;;;;9.63;1.70;;;4.90;84.80;;;;;;5076225;28;20017;-48
2023/12/23 03:07:06;;;;;;;10.75;2.15;;;4.90;85.10;;;;;;5076582;28;20315;-47
2023/12/23 03:09:34;;;;;;;9.45;2.33;;;4.90;85.50;;;;;;5096421;28;20020;-48
2023/12/23 03:12:02;;;;;;;13.68;1.65;;;4.90;85.70;;;;;;5071749;28;20068;-46
2023/12/23 03:14:29;;;;;;;15.02;2.30;;;4.90;85.90;;;;;;5076128;28;20024;-47
2023/12/23 03:16:57;;;;;;;15.88;2.58;;;4.90;85.90;;;;;;5075582;28;20032;-47
2023/12/23 03:19:23;;;;;;;15.25;2.42;;;5.00;86.20;;;;;;5080857;28;20021;-47
2023/12/23 03:21:52;;;;;;;18.92;2.83;;;5.00;86.10;;;;;;5087633;28;20020;-47
2023/12/23 03:24:20;;;;;;;13.65;2.75;;;5.00;86.20;;;;;;5084744;28;20028;-49
2023/12/23 03:26:46;;;;;;;6.95;1.13;;;5.00;85.80;;;;;;5089228;28;20036;-47
2023/12/23 03:29:14;;;;;;;9.25;2.03;;;5.10;83.40;;;;;;5079095;28;20033;-47
2023/12/23 03:31:41;;;;;;;5.85;1.77;;;5.20;82.40;;;;;;5075661;28;20454;-46
2023/12/23 03:34:08;;;;;;;5.90;1.50;;;5.20;80.70;;;;;;5076966;28;20040;-47
2023/12/23 03:36:34;;;;;;;12.93;2.80;;;5.20;84.00;;;;;;5076272;28;20404;-43
2023/12/23 03:39:01;;;;;;;11.15;1.50;;;4.90;86.70;;;;;;5088282;28;20035;-43
2023/12/23 03:41:27;;;;;;;9.45;2.15;;;4.70;87.30;;;;;;5087329;28;20028;-42
2023/12/23 03:43:56;;;;;;;12.35;1.85;;;4.50;88.10;;;;;;5084844;28;20453;-42
2023/12/23 03:46:23;;;;;;;9.55;1.38;;;4.40;88.60;;;;;;5084838;28;20028;-43
2023/12/23 03:48:50;;;;;;;8.35;1.67;;;4.40;89.20;;;;;;5086525;28;20098;-43
2023/12/23 03:51:17;;;;;;;7.85;1.65;;;4.30;89.40;;;;;;5074339;28;20029;-44
2023/12/23 03:53:44;;;;;;;14.45;3.40;;;4.40;89.50;;;;;;5079851;28;20056;-43
2023/12/23 03:56:13;;;;;;;11.10;1.65;;;4.30;89.50;;;;;;5084179;28;20024;-43
2023/12/23 03:58:40;;;;;;;8.37;1.90;;;4.30;89.60;;;;;;5090253;28;20049;-44
2023/12/23 04:01:06;;;;;;;10.43;2.08;;;4.40;89.80;;;;;;5085597;28;20433;-42
2023/12/23 04:03:33;;;;;;;12.05;2.17;;;4.40;90.00;;;;;;5084034;28;20062;-45
2023/12/23 04:06:01;;;;;;;16.08;3.20;;;4.40;90.30;;;;;;5080856;28;20044;-44
2023/12/23 04:08:29;;;;;;;12.27;2.78;;;4.40;90.40;;;;;;5057834;28;20112;-44
2023/12/23 04:10:55;;;;;;;13.90;2.88;;;4.40;90.30;;;;;;5094866;28;20040;-45
2023/12/23 04:13:22;;;;;;;15.18;2.70;;;4.50;90.60;;;;;;5081963;28;20445;-45
2023/12/23 04:15:52;;;;;;;13.65;2.58;;;4.50;90.80;;;;;;5074897;28;20094;-44
2023/12/23 04:18:19;;;;;;;9.10;2.30;;;4.50;91.00;;;;;;5074937;28;20032;-45
2023/12/23 04:20:46;;;;;;;10.85;2.70;;;4.50;91.10;;;;;;5076121;28;20334;-45
2023/12/23 04:23:13;;;;;;;11.90;2.83;;;4.50;91.20;;;;;;5082463;28;20095;-45
2023/12/23 04:25:40;;;;;;;15.95;2.17;;;4.50;91.40;;;;;;5116179;28;20391;-45
2023/12/23 04:28:05;;;;;;;14.25;3.13;;;4.50;91.60;;;;;;5093885;28;20039;-45
2023/12/23 04:30:34;;;;;;;11.57;2.67;;;4.50;91.90;;;;;;5074929;28;20028;-45
2023/12/23 04:33:01;;;;;;;16.80;2.97;;;4.60;92.00;;;;;;5074909;28;20035;-46
2023/12/23 04:35:28;;;;;;;15.65;3.45;;;4.60;92.10;;;;;;5090648;28;20051;-46
2023/12/23 04:37:56;;;;;;;12.32;2.30;;;4.60;92.20;;;;;;5082093;28;20032;-46
2023/12/23 04:40:23;;;;;;;12.82;4.18;;;4.60;92.30;;;;;;5075066;28;20467;-45
2023/12/23 04:42:49;;;;;;;16.40;3.30;;;4.60;92.30;;;;;;5074896;28;20016;-44
2023/12/23 04:45:15;;;;;;;8.93;2.45;;;4.60;92.20;;;;;;5074686;28;20419;-46
2023/12/23 04:47:42;;;;;;;8.75;2.10;;;4.60;92.20;;;;;;5094804;28;20433;-46
2023/12/23 04:50:09;;;;;;;16.52;3.20;;;4.60;92.10;;;;;;5092029;28;20032;-46
2023/12/23 04:52:36;;;;;;;12.43;2.20;;;4.60;92.10;;;;;;5074650;28;20052;-46
2023/12/23 04:55:05;;;;;;;9.73;2.25;;;4.70;91.90;;;;;;5075135;28;20059;-46
2023/12/23 04:57:32;;;;;;;16.40;1.90;;;4.60;91.90;;;;;;5079550;28;20035;-47
2023/12/23 04:59:59;;;;;;;10.38;2.05;;;4.70;91.90;;;;;;5094694;28;20020;-46
2023/12/23 05:02:25;;;;;;;20.55;2.55;;;4.70;91.80;;;;;;5072427;28;20024;-47
2023/12/23 05:04:52;;;;;;;13.57;2.30;;;4.70;92.00;;;;;;5074283;28;20035;-46
2023/12/23 05:07:19;;;;;;;15.65;2.67;;;4.70;92.20;;;;;;5079988;28;20088;-47
2023/12/23 05:09:45;;;;;;;10.60;2.40;;;4.70;92.30;;;;;;5086307;28;20029;-47
2023/12/23 05:12:11;;;;;;;11.55;3.30;;;4.70;92.40;;;;;;5091772;28;20070;-46
2023/12/23 05:14:40;;;;;;;14.60;3.13;;;4.70;92.50;;;;;;5094234;28;20063;-47
2023/12/23 05:17:07;;;;;;;17.65;3.22;;;4.70;92.60;;;;;;5094045;28;20115;-47
2023/12/23 05:19:34;;;;;;;16.20;2.38;;;4.70;92.70;;;;;;5081103;28;20021;-47
2023/12/23 05:22:01;;;;;;;14.18;2.50;;;4.70;92.80;;;;;;5088701;28;20028;-48
2023/12/23 05:24:27;;;;;;;14.85;3.42;;;4.70;92.90;;;;;;5088974;28;20049;-51
2023/12/23 05:26:53;;;;;;;14.68;2.10;;;4.70;92.90;;;;;;5096817;28;20368;-48
2023/12/23 05:29:23;;;;;;;15.98;2.83;;;4.70;93.00;;;;;;5084513;28;20441;-47
2023/12/23 05:31:50;;;;;;;18.00;2.60;;;4.70;93.10;;;;;;5073836;28;20442;-48
2023/12/23 05:34:17;;;;;;;11.27;2.40;;;4.70;93.20;;;;;;5074322;28;20357;-49
2023/12/23 05:36:44;;;;;;;11.68;2.22;;;4.70;93.30;;;;;;5093903;28;20032;-49
2023/12/23 05:39:11;;;;;;;13.13;2.22;;;4.70;93.40;;;;;;5094012;28;20031;-48
2023/12/23 05:41:40;;;;;;;11.68;2.55;;;4.70;93.50;;;;;;5093881;28;20103;-48
2023/12/23 05:44:08;;;;;;;7.60;1.75;;;4.60;93.40;;;;;;5078051;28;20260;-50
2023/12/23 05:46:34;;;;;;;11.93;3.10;;;4.60;93.50;;;;;;5077634;28;20024;-48
2023/12/23 05:49:01;;;;;;;10.05;2.33;;;4.60;93.50;;;;;;5093670;28;20099;-49
2023/12/23 05:51:27;;;;;;;12.15;1.60;;;4.60;93.60;;;;;;5077537;28;20397;-49
2023/12/23 05:53:56;;;;;;;9.95;2.80;;;4.60;93.60;;;;;;5073439;28;20426;-53
2023/12/23 05:56:26;;;;;;;10.95;2.55;;;4.60;93.70;;;;;;5093453;28;20119;-48
2023/12/23 05:58:51;;;;;;;9.85;1.73;;;4.50;93.80;;;;;;5093644;28;20032;-48
2023/12/23 06:01:18;;;;;;;15.10;2.53;;;4.50;93.90;;;;;;5087044;28;20482;-49
2023/12/23 06:03:44;;;;;;;13.23;1.75;;;4.60;94.00;;;;;;5088619;28;20031;-48
2023/12/23 06:06:12;;;;;;;11.68;1.67;;;4.50;94.00;;;;;;5075380;28;20326;-51
2023/12/23 06:08:39;;;;;;;8.38;1.80;;;4.60;94.10;;;;;;5093279;28;20505;-50
2023/12/23 06:11:07;;;;;;;12.27;2.22;;;4.60;94.10;;;;;;5073825;28;20044;-49
2023/12/23 06:13:34;;;;;;;8.02;1.88;;;4.60;94.20;;;;;;5085126;28;20442;-50
2023/12/23 06:16:07;;;;;;;9.02;2.25;;;4.60;94.20;;;;;;5093385;28;20028;-48
2023/12/23 06:18:34;;;;;;;7.85;1.70;;;4.50;94.20;;;;;;5093332;28;20430;-50
2023/12/23 06:21:04;;;;;;;13.35;2.17;;;4.60;94.30;;;;;;5075133;28;20541;-48
2023/12/23 06:23:30;;;;;;;11.63;2.60;;;4.60;94.40;;;;;;5078885;28;20024;-50
2023/12/23 06:25:57;;;;;;;14.25;1.98;;;4.60;94.50;;;;;;5086299;28;20450;-53
2023/12/23 06:28:25;;;;;;;13.57;2.97;;;4.60;94.50;;;;;;5072964;28;20021;-55
2023/12/23 06:30:51;;;;;;;13.38;2.45;;;4.60;94.50;;;;;;5073398;28;20037;-51
2023/12/23 06:33:18;;;;;;;12.75;2.60;;;4.50;94.50;;;;;;5083153;28;20035;-49
2023/12/23 06:35:45;;;;;;;9.48;1.55;;;4.60;94.70;;;;;;5075392;28;20028;-48
2023/12/23 06:38:13;;;;;;;7.20;1.88;;;4.50;94.70;;;;;;5070782;28;20029;-48
2023/12/23 06:40:40;;;;;;;12.38;2.20;;;4.50;94.80;;;;;;5073106;28;20099;-49
2023/12/23 06:43:06;;;;;;;5.20;1.45;;;4.60;94.80;;;;;;5060412;28;20417;-49
2023/12/23 06:45:32;;;;;;;9.60;2.05;;;4.60;94.90;;;;;;5073440;28;20059;-48
2023/12/23 06:47:59;;;;;;;8.75;1.45;;;4.50;94.90;;;;;;5072744;28;20029;-52
2023/12/23 06:50:26;;;;;;;6.60;1.30;;;4.60;94.90;;;;;;5072630;28;20039;-49
2023/12/23 06:52:53;;;;;;;6.32;1.92;;;4.60;94.90;;;;;;5075682;28;20089;-50
2023/12/23 06:55:19;;;;;;;7.72;1.42;;;4.50;95.00;;;;;;5093027;28;20032;-49
2023/12/23 06:57:47;;;;;;;11.18;1.92;;;4.50;95.00;;;;;;5092886;28;20028;-49
2023/12/23 07:00:14;;;;;;;10.18;2.38;;;4.60;95.10;;;;;;5075135;28;20402;-50
2023/12/23 07:02:41;;;;;;;10.00;2.35;;;4.60;95.00;;;;;;5071064;28;20035;-49
2023/12/23 07:05:07;;;;;;;8.48;2.05;;;4.60;95.10;;;;;;5082215;28;20032;-50
2023/12/23 07:07:33;;;;;;;9.32;2.33;;;4.60;95.10;;;;;;5093184;28;20570;-49
2023/12/23 07:10:00;;;;;;;9.57;1.77;;;4.60;95.10;;;;;;5073542;28;20372;-49
2023/12/23 07:12:32;;;;;;;15.85;2.97;;;4.60;95.10;;;;;;5072497;28;20052;-49
2023/12/23 07:15:10;;;;;;;11.32;3.05;;;4.60;95.10;;;;;;5110204;27;1249331;-51
2023/12/23 07:17:37;;;;;;;11.00;2.58;;;4.60;95.10;;;;;;5118069;28;20356;-48
2023/12/23 07:20:04;;;;;;;8.10;2.03;;;4.50;95.10;;;;;;5127599;28;20027;-50
2023/12/23 07:22:30;;;;;;;8.90;1.83;;;4.50;95.10;;;;;;5128836;27;20027;-49
2023/12/23 07:25:01;;;;;;;9.68;2.88;;;4.60;95.10;;;;;;5119822;27;20020;-50
2023/12/23 07:27:28;;;;;;;9.20;1.58;;;4.50;95.20;;;;;;5110820;28;20327;-49
2023/12/23 07:29:54;;;;;;;4.78;1.38;;;4.60;95.30;;;;;;5109909;28;20036;-51
2023/12/23 07:32:21;;;;;;;7.38;1.65;;;4.60;95.30;;;;;;5121252;28;20451;-49
2023/12/23 07:34:48;;;;;;;6.72;1.33;;;4.50;95.30;;;;;;5119134;28;20028;-52
2023/12/23 07:37:15;;;;;;;5.82;1.77;;;4.60;95.40;;;;;;5117486;28;20109;-49
2023/12/23 07:39:43;;;;;;;13.05;1.80;;;4.60;95.40;;;;;;5125216;28;20050;-49
2023/12/23 07:42:12;;;;;;;7.60;1.55;;;4.50;95.40;;;;;;5120540;27;20404;-52
2023/12/23 07:44:39;;;;;;;10.32;1.85;;;4.60;95.40;;;;;;5113913;28;20039;-49
2023/12/23 07:47:06;;;;;;;6.07;1.25;;;4.60;95.40;;;;;;5116445;28;20099;-48
2023/12/23 07:49:36;;;;;;;3.28;1.13;;;4.60;95.40;;;;;;5121949;27;20080;-49
2023/12/23 07:52:12;;;;;;;5.53;1.48;;;4.60;95.40;;;;;;5114813;28;20453;-52
2023/12/23 07:54:39;;;;;;;9.10;1.35;;;4.60;95.40;;;;;;5116581;28;20495;-48
2023/12/23 07:57:10;;;;;;;5.03;1.30;;;4.60;95.40;;;;;;5115103;28;20063;-48
2023/12/23 07:59:36;;;;;;;6.85;2.05;;;4.60;95.50;;;;;;5111333;28;20020;-51
2023/12/23 08:02:02;;;;;;;7.45;1.50;;;4.60;95.50;;;;;;5116398;28;20337;-54
2023/12/23 08:04:31;;;;;;;8.60;1.55;;;4.60;95.50;;;;;;5110000;28;20066;-50
2023/12/23 08:07:01;;;;;;;4.43;1.30;;;4.60;95.40;;;;;;5121491;28;20027;-50
2023/12/23 08:09:26;;;;;;;5.32;1.70;;;4.60;95.40;;;;;;5128269;28;20429;-50
2023/12/23 08:11:52;;;;;;;3.63;1.08;;;4.50;95.50;;;;;;5118823;28;20042;-48
2023/12/23 08:14:19;;;;;;;5.28;1.48;;;4.60;95.50;;;;;;5109417;28;20052;-47
2023/12/23 08:16:45;;;;;;;6.30;1.05;;;4.60;95.50;;;;;;5118993;28;20027;-47
2023/12/23 08:19:13;;;;;;;6.07;1.42;;;4.60;95.50;;;;;;5127902;28;20019;-48
2023/12/23 08:21:40;;;;;;;10.63;1.98;;;4.60;95.50;;;;;;5111136;27;20024;-47
2023/12/23 08:24:07;;;;;;;12.73;2.70;;;4.60;95.50;;;;;;5115872;28;20024;-48
2023/12/23 08:26:34;;;;;;;5.32;1.30;;;4.60;95.50;;;;;;5098787;28;20024;-47
2023/12/23 08:28:59;;;;;;;3.88;1.83;;;4.60;95.50;;;;;;5104576;28;20028;-47
2023/12/23 08:31:29;;;;;;;6.75;2.58;;;4.60;95.40;;;;;;5114727;28;20038;-48
2023/12/23 08:33:54;;;;;;;5.22;1.55;;;4.60;95.60;;;;;;5103632;28;20039;-47
2023/12/23 08:36:20;;;;;;;7.07;1.77;;;4.70;95.60;;;;;;5103015;28;20025;-50
2023/12/23 08:38:46;;;;;;;5.93;1.38;;;4.70;95.60;;;;;;5100056;28;20020;-48
2023/12/23 08:41:11;;;;;;;7.93;1.58;;;4.70;95.50;;;;;;5107499;28;20019;-48
2023/12/23 08:43:37;;;;;;;8.18;1.98;;;4.70;95.60;;;;;;5105830;28;20110;-48
2023/12/23 08:46:04;;;;;;;6.85;3.05;;;4.70;95.70;;;;;;5102348;28;20035;-50
2023/12/23 08:48:31;;;;;;;7.93;3.13;;;4.80;95.60;;;;;;5105815;28;20032;-47
2023/12/23 08:50:57;;;;;;;9.68;2.55;;;4.80;95.60;;;;;;5104579;28;20063;-47
2023/12/23 08:53:25;;;;;;;7.47;3.40;;;4.80;95.60;;;;;;5101035;28;20031;-47
2023/12/23 08:55:51;;;;;;;8.38;2.65;;;4.80;95.70;;;;;;5106888;28;20051;-47
2023/12/23 08:58:18;;;;;;;11.52;4.25;;;4.80;95.70;;;;;;5115567;28;20020;-46
2023/12/23 09:00:47;;;;;;;6.38;3.13;;;4.90;95.60;;;;;;5111040;28;20094;-46
2023/12/23 09:03:14;;;;;;;5.43;2.17;;;4.90;95.70;;;;;;5113706;28;20028;-47
2023/12/23 09:05:43;;;;;;;6.32;2.45;;;4.90;95.60;;;;;;5110017;28;20394;-47
2023/12/23 09:08:11;;;;;;;7.35;2.05;;;4.90;95.60;;;;;;5096409;28;20042;-47
2023/12/23 09:10:38;;;;;;;9.93;2.75;;;4.90;95.60;;;;;;5112170;28;20364;-48
2023/12/23 09:13:04;;;;;;;6.97;2.33;;;4.90;95.60;;;;;;5105734;28;20035;-47
2023/12/23 09:15:31;;;;;;;7.18;1.77;;;4.90;95.70;;;;;;5102887;28;20024;-47
2023/12/23 09:17:58;;;;;;;8.05;2.10;;;5.00;95.70;;;;;;5100739;28;20028;-47
2023/12/23 09:20:25;;;;;;;6.20;2.00;;;4.90;95.70;;;;;;5095681;28;20430;-47
2023/12/23 09:22:56;;;;;;;10.88;4.60;;;4.90;95.70;;;;;;5114973;28;20062;-46
2023/12/23 09:25:23;;;;;;;8.10;1.63;;;4.90;95.60;;;;;;5085828;28;20026;-47
2023/12/23 09:27:52;;;;;;;8.88;1.98;;;4.90;95.70;;;;;;5094921;28;20046;-47
2023/12/23 09:30:18;;;;;;;7.00;2.25;;;4.90;95.70;;;;;;5094546;28;20395;-51
2023/12/23 09:32:45;;;;;;;5.18;2.35;;;4.90;95.70;;;;;;5113389;28;20467;-47
2023/12/23 09:35:12;;;;;;;9.93;2.50;;;4.90;95.70;;;;;;5114988;28;20156;-47
2023/12/23 09:37:39;;;;;;;6.80;2.45;;;4.90;95.70;;;;;;5093381;28;20031;-46
2023/12/23 09:40:07;;;;;;;3.92;1.80;;;4.90;95.80;;;;;;5094773;28;20357;-49
2023/12/23 09:42:34;;;;;;;7.18;2.33;;;5.00;95.80;;;;;;5076899;28;20028;-47
2023/12/23 09:45:00;;;;;;;10.75;2.70;;;5.00;95.80;;;;;;5094631;28;20070;-46
2023/12/23 09:47:29;;;;;;;5.53;2.50;;;5.10;95.90;;;;;;5096825;28;20024;-46
2023/12/23 09:49:56;;;;;;;6.90;2.10;;;5.10;95.80;;;;;;5114820;28;20023;-45
2023/12/23 09:52:23;;;;;;;8.05;2.03;;;5.10;95.80;;;;;;5114661;28;20043;-45
2023/12/23 09:54:52;;;;;;;6.65;2.08;;;5.20;95.90;;;;;;5113320;28;20055;-46
2023/12/23 09:57:20;;;;;;;5.88;1.73;;;5.20;95.80;;;;;;5094333;28;20043;-47
2023/12/23 09:59:53;;;;;;;6.00;2.22;;;5.20;95.90;;;;;;5094413;28;20457;-46
2023/12/23 10:02:22;;;;;;;4.28;1.20;;;5.30;95.80;;;;;;5094266;28;20028;-47
2023/12/23 10:04:50;;;;;;;4.13;1.88;;;5.20;95.80;;;;;;5076637;28;20031;-47
2023/12/23 10:07:18;;;;;;;4.95;1.58;;;5.30;95.70;;;;;;5093862;28;20036;-46
2023/12/23 10:09:50;;;;;;;3.85;1.20;;;5.20;95.70;;;;;;5114018;28;20032;-46
2023/12/23 10:12:20;;;;;;;7.15;1.70;;;5.20;95.80;;;;;;5114616;28;20019;-46
2023/12/23 10:14:50;;;;;;;;;;;5.30;95.80;;;;;;5093955;28;20040;-45
2023/12/23 10:17:19;;;;;;;7.70;1.80;;;5.30;95.70;;;;;;5093070;28;19942;-45
2023/12/23 10:19:55;;;;;;;10.20;2.33;;;5.20;95.60;;;;;;5097373;28;20027;-45
2023/12/23 10:22:21;;;;;;;6.82;2.10;;;5.20;95.60;;;;;;5114249;28;20379;-45
2023/12/23 10:24:48;;;;;;;6.07;1.90;;;5.20;95.70;;;;;;5113143;28;20051;-45
2023/12/23 10:27:18;;;;;;;4.78;1.80;;;5.30;95.70;;;;;;5111955;28;20109;-45
2023/12/23 10:29:51;;;;;;;10.75;1.98;;;5.30;95.60;;;;;;5093952;28;20049;-45
2023/12/23 10:32:23;;;;;;;4.22;1.30;;;5.30;95.70;;;;;;5096778;28;20031;-45
2023/12/23 10:34:54;;;;;;;3.03;1.20;;;5.30;95.60;;;;;;5114289;28;20044;-43
2023/12/23 10:37:23;;;;;;;6.35;1.20;;;5.40;95.70;;;;;;5113964;28;20099;-45
2023/12/23 10:40:16;;;;;;;4.05;1.40;;;5.40;95.60;;;;;;5108241;28;20445;-44
2023/12/23 10:42:45;;;;;;;5.78;1.33;;;5.40;95.60;;;;;;5093468;28;20032;-44
2023/12/23 10:45:12;;;;;;;2.53;1.13;;;5.40;95.60;;;;;;5093318;28;20027;-44
2023/12/23 10:47:40;;;;;;;5.60;1.75;;;5.50;95.60;;;;;;5092127;28;20484;-45
2023/12/23 10:50:08;;;;;;;4.70;1.70;;;5.50;95.60;;;;;;5093546;28;20032;-44
2023/12/23 10:52:36;;;;;;;4.97;1.70;;;5.50;95.60;;;;;;5093652;28;20032;-45
2023/12/23 10:55:05;;;;;;;8.43;4.40;;;5.50;95.50;;;;;;5093190;28;20464;-44
2023/12/23 10:57:32;;;;;;;5.90;2.05;;;5.60;95.60;;;;;;5093459;28;20020;-45
2023/12/23 10:59:58;;;;;;;7.40;1.60;;;5.60;95.50;;;;;;5093406;28;20028;-45
2023/12/23 11:02:34;;;;;;;4.35;1.48;;;5.70;95.50;;;;;;5093407;28;20422;-44
2023/12/23 11:05:06;;;;;;;5.50;1.80;;;5.60;95.40;;;;;;5093237;28;20040;-43
2023/12/23 11:07:45;;;;;;;5.18;1.95;;;5.60;95.40;;;;;;5093331;28;20039;-45
2023/12/23 11:10:14;;;;;;;5.63;1.75;;;5.60;95.50;;;;;;5086875;28;20047;-44
2023/12/23 11:12:43;;;;;;;7.75;2.03;;;5.70;95.50;;;;;;5072761;28;20032;-44
2023/12/23 11:15:10;;;;;;;3.05;1.63;;;5.60;95.40;;;;;;5072349;28;20040;-44
2023/12/23 11:17:43;;;;;;;3.65;1.38;;;5.60;95.30;;;;;;5072756;28;20827;-45
2023/12/23 11:20:30;;;;;;;3.17;1.10;;;5.60;95.40;;;;;;5071619;28;20506;-45
2023/12/23 11:23:01;;;;;;;3.03;1.17;;;5.50;95.30;;;;;;5073070;28;20036;-44
2023/12/23 11:25:42;;;;;;;3.25;0.98;;;5.50;95.30;;;;;;5082659;28;20373;-44
2023/12/23 11:28:12;;;;;;;3.55;0.90;;;5.50;95.30;;;;;;5072702;28;20016;-44
2023/12/23 11:30:58;;;;;;;3.83;2.15;;;5.50;95.30;;;;;;5092732;28;20023;-45
2023/12/23 11:33:29;;;;;;;5.80;1.73;;;5.60;95.30;;;;;;5092973;28;20034;-44
2023/12/23 11:36:03;;;;;;;5.22;1.45;;;5.50;95.20;;;;;;5082068;28;20037;-45
2023/12/23 11:38:47;;;;;;;2.67;1.42;;;5.50;95.20;;;;;;5073005;28;20108;-43
2023/12/23 11:41:17;;;;;;;3.53;1.25;;;5.50;95.20;;;;;;5071536;28;20032;-46
2023/12/23 11:43:45;;;;;;;5.53;2.55;;;5.60;95.20;;;;;;5072704;28;20036;-44
2023/12/23 11:46:13;;;;;;;4.43;1.00;;;5.60;95.20;;;;;;5072796;28;20334;-45
2023/12/23 11:48:40;;;;;;;3.40;1.00;;;5.60;95.10;;;;;;5071652;28;20422;-44
2023/12/23 11:51:07;;;;;;;4.65;1.00;;;5.60;95.10;;;;;;5072331;28;20025;-44
2023/12/23 11:53:34;;;;;;;4.28;1.10;;;5.60;95.10;;;;;;5074791;28;20025;-45
2023/12/23 11:56:06;;;;;;;1.65;0.73;;;5.60;95.10;;;;;;5092702;28;20035;-46
2023/12/23 11:58:33;;;;;;;3.78;0.90;;;5.60;95.00;;;;;;5092868;28;20107;-45
2023/12/23 12:01:02;;;;;;;3.15;1.10;;;5.70;95.00;;;;;;5083476;28;20021;-45
2023/12/23 12:03:29;;;;;;;2.95;1.05;;;5.60;95.00;;;;;;5075313;28;20028;-45
2023/12/23 12:06:00;;;;;;;2.95;1.20;;;5.70;95.00;;;;;;5076212;28;20093;-46
2023/12/23 12:08:28;;;;;;;2.42;1.00;;;5.70;94.90;;;;;;5075966;28;20025;-45
2023/12/23 12:10:56;;;;;;;4.35;1.20;;;5.60;94.90;;;;;;5076214;28;20641;-44
2023/12/23 12:13:27;;;;;;;4.15;1.50;;;5.70;94.90;;;;;;5075890;28;20048;-45
2023/12/23 12:15:53;;;;;;;3.47;0.98;;;5.70;94.80;;;;;;5081466;28;20020;-46
2023/12/23 12:18:20;;;;;;;3.60;1.05;;;5.60;94.80;;;;;;5096296;28;20046;-45
2023/12/23 12:20:47;;;;;;;2.45;0.65;;;5.70;94.90;;;;;;5094918;28;20032;-47
2023/12/23 12:23:14;;;;;;;5.32;0.73;;;5.70;95.00;;;;;;5080643;28;20028;-46
2023/12/23 12:25:50;;;;;;;4.82;0.95;;;5.70;94.90;;;;;;5077521;28;20021;-45
2023/12/23 12:28:16;;;;;;;3.55;0.75;;;5.80;94.90;;;;;;5075055;28;20024;-46
2023/12/23 12:30:44;;;;;;;2.05;0.70;;;5.80;94.80;;;;;;5092176;28;20114;-46
2023/12/23 12:33:11;;;;;;;2.67;1.05;;;5.90;94.90;;;;;;5095734;28;20032;-45
2023/12/23 12:35:40;;;;;;;3.33;0.60;;;5.90;94.80;;;;;;5083190;28;20446;-47
2023/12/23 12:38:09;;;;;;;3.28;0.65;;;5.90;94.80;;;;;;5095223;28;20024;-47
2023/12/23 12:40:36;;;;;;;2.83;0.45;;;5.90;94.70;;;;;;5082509;28;20032;-46
2023/12/23 12:43:09;;;;;;;5.32;0.73;;;5.90;94.60;;;;;;5095439;28;20554;-47
2023/12/23 12:45:41;;;;;;;4.90;0.60;;;5.90;94.60;;;;;;5086073;28;20042;-46
2023/12/23 12:48:12;;;;;;;3.08;0.82;;;5.90;94.60;;;;;;5085464;28;20027;-48
2023/12/23 12:50:45;;;;;;;1.33;0.65;;;5.90;94.60;;;;;;5085728;28;20028;-45
2023/12/23 12:53:15;;;;;;;2.10;0.70;;;5.90;94.50;;;;;;5088860;28;20020;-46
2023/12/23 12:55:44;;;;;;;4.15;0.50;;;5.90;94.40;;;;;;5094297;28;20428;-46
2023/12/23 12:58:11;;;;;;;3.78;0.68;;;5.90;94.30;;;;;;5091698;28;20028;-48